sensor_id;sensor_type;location;lat;lon;timestamp;pressure;altitude;pressure_sealevel;temperature;humidity
28181;BME280;15464;50.988;10.318;2023-05-11T00:00:48;98692.94;;;12.18;100.00
28181;BME280;15464;50.988;10.318;2023-05-11T00:03:14;98686.81;;;12.18;100.00
28181;BME280;15464;50.988;10.318;2023-05-11T00:05:41;98692.25;;;12.16;100.00
28181;BME280;15464;50.988;10.318;2023-05-11T00:08:12;98693.09;;;12.17;100.00
28181;BME280;15464;50.988;10.318;2023-05-11T00:10:46;98687.09;;;12.15;100.00
28181;BME280;15464;50.988;10.318;2023-05-11T00:13:12;98688.06;;;12.13;100.00
28181;BME280;15464;50.988;10.318;2023-05-11T00:15:39;98686.38;;;12.12;100.00
28181;BME280;15464;50.988;10.318;2023-05-11T00:18:06;98689.03;;;12.12;100.00
28181;BME280;15464;50.988;10.318;2023-05-11T00:20:33;98696.34;;;12.10;100.00
28181;BME280;15464;50.988;10.318;2023-05-11T00:22:59;98687.53;;;12.10;100.00
28181;BME280;15464;50.988;10.318;2023-05-11T00:25:26;98690.31;;;12.08;100.00
28181;BME280;15464;50.988;10.318;2023-05-11T00:27:53;98687.66;;;12.08;100.00
28181;BME280;15464;50.988;10.318;2023-05-11T00:30:19;98686.00;;;12.07;100.00
28181;BME280;15464;50.988;10.318;2023-05-11T00:32:46;98687.97;;;12.05;100.00
28181;BME280;15464;50.988;10.318;2023-05-11T00:35:14;98686.31;;;12.04;100.00
28181;BME280;15464;50.988;10.318;2023-05-11T00:37:41;98682.66;;;12.05;100.00
28181;BME280;15464;50.988;10.318;2023-05-11T00:40:08;98687.97;;;12.05;100.00
28181;BME280;15464;50.988;10.318;2023-05-11T00:42:34;98682.81;;;12.04;100.00
28181;BME280;15464;50.988;10.318;2023-05-11T00:45:01;98680.28;;;12.02;100.00
28181;BME280;15464;50.988;10.318;2023-05-11T00:47:28;98684.63;;;12.03;100.00
28181;BME280;15464;50.988;10.318;2023-05-11T00:49:56;98682.94;;;12.02;100.00
28181;BME280;15464;50.988;10.318;2023-05-11T00:52:23;98682.94;;;12.02;100.00
28181;BME280;15464;50.988;10.318;2023-05-11T00:54:50;98677.09;;;11.99;100.00
28181;BME280;15464;50.988;10.318;2023-05-11T00:57:17;98683.53;;;11.96;100.00
28181;BME280;15464;50.988;10.318;2023-05-11T00:59:45;98687.88;;;11.97;100.00
28181;BME280;15464;50.988;10.318;2023-05-11T01:02:12;98683.53;;;11.96;100.00
28181;BME280;15464;50.988;10.318;2023-05-11T01:04:39;98678.22;;;11.96;100.00
28181;BME280;15464;50.988;10.318;2023-05-11T01:07:15;98685.19;;;11.97;100.00
28181;BME280;15464;50.988;10.318;2023-05-11T01:15:17;98682.53;;;11.97;100.00
28181;BME280;15464;50.988;10.318;2023-05-11T01:17:55;98673.72;;;11.97;100.00
28181;BME280;15464;50.988;10.318;2023-05-11T01:20:25;98675.41;;;11.98;100.00
28181;BME280;15464;50.988;10.318;2023-05-11T01:23:24;98678.22;;;11.96;100.00
28181;BME280;15464;50.988;10.318;2023-05-11T01:26:15;98674.72;;;11.96;100.00
28181;BME280;15464;50.988;10.318;2023-05-11T01:29:12;98673.03;;;11.95;100.00
28181;BME280;15464;50.988;10.318;2023-05-11T01:31:46;98682.81;;;11.94;100.00
28181;BME280;15464;50.988;10.318;2023-05-11T01:34:20;98673.16;;;11.93;100.00
28181;BME280;15464;50.988;10.318;2023-05-11T01:36:57;98683.81;;;11.93;100.00
28181;BME280;15464;50.988;10.318;2023-05-11T01:39:34;98674.00;;;11.94;100.00
28181;BME280;15464;50.988;10.318;2023-05-11T01:42:10;98674.00;;;11.94;100.00
28181;BME280;15464;50.988;10.318;2023-05-11T01:44:39;98679.88;;;11.97;100.00
28181;BME280;15464;50.988;10.318;2023-05-11T01:47:09;98680.03;;;11.96;100.00
28181;BME280;15464;50.988;10.318;2023-05-11T01:49:39;98681.84;;;11.95;100.00
28181;BME280;15464;50.988;10.318;2023-05-11T01:52:08;98678.22;;;11.96;100.00
28181;BME280;15464;50.988;10.318;2023-05-11T01:54:37;98682.69;;;11.96;100.00
28181;BME280;15464;50.988;10.318;2023-05-11T01:57:05;98682.69;;;11.96;100.00
28181;BME280;15464;50.988;10.318;2023-05-11T01:59:34;98679.88;;;11.97;100.00
28181;BME280;15464;50.988;10.318;2023-05-11T02:02:02;98686.19;;;11.96;100.00
28181;BME280;15464;50.988;10.318;2023-05-11T02:04:30;98690.53;;;11.97;100.00
28181;BME280;15464;50.988;10.318;2023-05-11T02:06:59;98681.56;;;11.98;100.00
28181;BME280;15464;50.988;10.318;2023-05-11T02:09:29;98679.88;;;11.97;100.00
28181;BME280;15464;50.988;10.318;2023-05-11T02:11:59;98683.53;;;11.96;100.00
28181;BME280;15464;50.988;10.318;2023-05-11T02:14:27;98680.47;;;11.91;100.00
28181;BME280;15464;50.988;10.318;2023-05-11T02:17:01;98686.91;;;11.89;100.00
28181;BME280;15464;50.988;10.318;2023-05-11T02:19:30;98689.28;;;11.92;100.00
28181;BME280;15464;50.988;10.318;2023-05-11T02:22:00;98682.16;;;11.92;100.00
28181;BME280;15464;50.988;10.318;2023-05-11T02:24:29;98681.31;;;11.92;100.00
28181;BME280;15464;50.988;10.318;2023-05-11T02:26:56;98687.47;;;11.92;100.00
28181;BME280;15464;50.988;10.318;2023-05-11T02:29:25;98683.97;;;11.92;100.00
28181;BME280;15464;50.988;10.318;2023-05-11T02:31:56;98682.16;;;11.92;100.00
28181;BME280;15464;50.988;10.318;2023-05-11T02:34:28;98689.28;;;11.92;100.00
28181;BME280;15464;50.988;10.318;2023-05-11T02:36:58;98682.16;;;11.92;100.00
28181;BME280;15464;50.988;10.318;2023-05-11T02:39:31;98679.50;;;11.92;100.00
28181;BME280;15464;50.988;10.318;2023-05-11T02:42:04;98681.31;;;11.92;100.00
28181;BME280;15464;50.988;10.318;2023-05-11T02:44:34;98680.47;;;11.91;100.00
28181;BME280;15464;50.988;10.318;2023-05-11T02:47:03;98677.69;;;11.93;100.00
28181;BME280;15464;50.988;10.318;2023-05-11T02:49:34;98681.13;;;11.93;100.00
28181;BME280;15464;50.988;10.318;2023-05-11T02:52:02;98686.31;;;11.95;100.00
28181;BME280;15464;50.988;10.318;2023-05-11T02:54:31;98680.16;;;11.94;100.00
28181;BME280;15464;50.988;10.318;2023-05-11T02:56:58;98678.47;;;11.93;100.00
28181;BME280;15464;50.988;10.318;2023-05-11T02:59:25;98677.81;;;11.91;100.00
28181;BME280;15464;50.988;10.318;2023-05-11T03:01:53;98677.81;;;11.91;100.00
28181;BME280;15464;50.988;10.318;2023-05-11T03:04:20;98675.16;;;11.91;100.00
28181;BME280;15464;50.988;10.318;2023-05-11T03:06:48;98680.34;;;11.93;100.00
28181;BME280;15464;50.988;10.318;2023-05-11T03:09:14;98675.81;;;11.93;100.00
28181;BME280;15464;50.988;10.318;2023-05-11T03:11:42;98678.47;;;11.93;100.00
28181;BME280;15464;50.988;10.318;2023-05-11T03:14:08;98678.47;;;11.93;100.00
28181;BME280;15464;50.988;10.318;2023-05-11T03:16:36;98674.84;;;11.94;100.00
28181;BME280;15464;50.988;10.318;2023-05-11T03:19:05;98670.38;;;11.95;100.00
28181;BME280;15464;50.988;10.318;2023-05-11T03:21:33;98675.16;;;11.91;100.00
28181;BME280;15464;50.988;10.318;2023-05-11T03:24:00;98668.44;;;11.87;100.00
28181;BME280;15464;50.988;10.318;2023-05-11T03:26:29;98672.53;;;11.82;100.00
28181;BME280;15464;50.988;10.318;2023-05-11T03:28:59;98672.69;;;11.80;100.00
28181;BME280;15464;50.988;10.318;2023-05-11T03:31:26;98669.84;;;11.82;100.00
28181;BME280;15464;50.988;10.318;2023-05-11T03:33:53;98674.06;;;11.84;100.00
28181;BME280;15464;50.988;10.318;2023-05-11T03:36:21;98676.00;;;11.82;100.00
28181;BME280;15464;50.988;10.318;2023-05-11T03:38:49;98672.38;;;11.83;100.00
28181;BME280;15464;50.988;10.318;2023-05-11T03:41:19;98674.06;;;11.84;100.00
28181;BME280;15464;50.988;10.318;2023-05-11T03:43:48;98671.25;;;11.86;100.00
28181;BME280;15464;50.988;10.318;2023-05-11T03:46:19;98670.41;;;11.85;100.00
28181;BME280;15464;50.988;10.318;2023-05-11T03:48:46;98666.38;;;11.81;100.00
28181;BME280;15464;50.988;10.318;2023-05-11T03:51:13;98674.34;;;11.81;100.00
28181;BME280;15464;50.988;10.318;2023-05-11T03:53:40;98664.41;;;11.83;100.00
28181;BME280;15464;50.988;10.318;2023-05-11T03:56:07;98665.94;;;11.86;100.00
28181;BME280;15464;50.988;10.318;2023-05-11T03:58:38;98671.25;;;11.86;100.00
28181;BME280;15464;50.988;10.318;2023-05-11T04:01:06;98662.31;;;11.87;100.00
28181;BME280;15464;50.988;10.318;2023-05-11T04:03:35;98664.13;;;11.86;100.00
28181;BME280;15464;50.988;10.318;2023-05-11T04:06:13;98666.63;;;11.88;100.00
28181;BME280;15464;50.988;10.318;2023-05-11T04:08:39;98665.63;;;11.89;100.00
28181;BME280;15464;50.988;10.318;2023-05-11T04:11:06;98669.00;;;11.91;100.00
28181;BME280;15464;50.988;10.318;2023-05-11T04:13:33;98668.69;;;11.94;100.00
28181;BME280;15464;50.988;10.318;2023-05-11T04:15:59;98664.22;;;11.94;100.00
28181;BME280;15464;50.988;10.318;2023-05-11T04:18:26;98663.94;;;11.97;100.00
28181;BME280;15464;50.988;10.318;2023-05-11T04:20:53;98667.25;;;11.99;100.00
28181;BME280;15464;50.988;10.318;2023-05-11T04:23:19;98672.59;;;11.99;100.00
28181;BME280;15464;50.988;10.318;2023-05-11T04:25:46;98668.94;;;12.00;100.00
28181;BME280;15464;50.988;10.318;2023-05-11T04:28:13;98673.28;;;12.01;100.00
28181;BME280;15464;50.988;10.318;2023-05-11T04:30:39;98677.63;;;12.02;100.00
28181;BME280;15464;50.988;10.318;2023-05-11T04:33:06;98673.97;;;12.03;100.00
28181;BME280;15464;50.988;10.318;2023-05-11T04:35:33;98672.84;;;12.06;100.00
28181;BME280;15464;50.988;10.318;2023-05-11T04:38:04;98677.34;;;12.05;100.00
28181;BME280;15464;50.988;10.318;2023-05-11T04:40:31;98675.34;;;12.07;100.00
28181;BME280;15464;50.988;10.318;2023-05-11T04:43:00;98673.69;;;12.06;100.00
28181;BME280;15464;50.988;10.318;2023-05-11T04:45:27;98673.41;;;12.09;100.00
28181;BME280;15464;50.988;10.318;2023-05-11T04:47:53;98679.41;;;12.11;100.00
28181;BME280;15464;50.988;10.318;2023-05-11T04:50:20;98668.78;;;12.11;100.00
28181;BME280;15464;50.988;10.318;2023-05-11T04:52:47;98671.44;;;12.11;100.00
28181;BME280;15464;50.988;10.318;2023-05-11T04:55:13;98673.09;;;12.12;100.00
28181;BME280;15464;50.988;10.318;2023-05-11T04:57:41;98681.75;;;12.15;100.00
28181;BME280;15464;50.988;10.318;2023-05-11T05:00:08;98676.84;;;12.20;100.00
28181;BME280;15464;50.988;10.318;2023-05-11T05:02:35;98670.25;;;12.24;100.00
28181;BME280;15464;50.988;10.318;2023-05-11T05:05:02;98673.59;;;12.26;100.00
28181;BME280;15464;50.988;10.318;2023-05-11T05:07:29;98682.25;;;12.28;100.00
28181;BME280;15464;50.988;10.318;2023-05-11T05:09:55;98673.00;;;12.32;100.00
28181;BME280;15464;50.988;10.318;2023-05-11T05:12:22;98669.66;;;12.30;100.00
28181;BME280;15464;50.988;10.318;2023-05-11T05:14:49;98673.00;;;12.32;100.00
28181;BME280;15464;50.988;10.318;2023-05-11T05:17:15;98679.16;;;12.32;100.00
28181;BME280;15464;50.988;10.318;2023-05-11T05:19:42;98680.97;;;12.32;100.00
28181;BME280;15464;50.988;10.318;2023-05-11T05:22:09;98678.16;;;12.33;100.00
28181;BME280;15464;50.988;10.318;2023-05-11T05:24:36;98677.31;;;12.33;100.00
28181;BME280;15464;50.988;10.318;2023-05-11T05:27:03;98676.63;;;12.31;100.00
28181;BME280;15464;50.988;10.318;2023-05-11T05:29:29;98675.81;;;12.30;100.00
28181;BME280;15464;50.988;10.318;2023-05-11T05:31:56;98684.19;;;12.35;100.00
28181;BME280;15464;50.988;10.318;2023-05-11T05:34:25;98679.72;;;12.36;100.00
28181;BME280;15464;50.988;10.318;2023-05-11T05:36:51;98676.03;;;12.37;100.00
28181;BME280;15464;50.988;10.318;2023-05-11T05:39:18;98680.69;;;12.35;100.00
28181;BME280;15464;50.988;10.318;2023-05-11T05:41:45;98690.34;;;12.36;100.00
28181;BME280;15464;50.988;10.318;2023-05-11T05:44:12;98687.50;;;12.37;100.00
28181;BME280;15464;50.988;10.318;2023-05-11T05:46:38;98691.44;;;12.43;100.00
28181;BME280;15464;50.988;10.318;2023-05-11T05:49:05;98695.59;;;12.45;100.00
28181;BME280;15464;50.988;10.318;2023-05-11T05:51:32;98693.50;;;12.49;100.00
28181;BME280;15464;50.988;10.318;2023-05-11T05:53:58;98694.16;;;12.51;100.00
28181;BME280;15464;50.988;10.318;2023-05-11T05:56:25;98700.31;;;12.51;100.00
28181;BME280;15464;50.988;10.318;2023-05-11T05:58:52;98693.03;;;12.53;100.00
28181;BME280;15464;50.988;10.318;2023-05-11T06:01:19;98703.53;;;12.55;100.00
28181;BME280;15464;50.988;10.318;2023-05-11T06:03:45;98700.19;;;12.53;100.00
28181;BME280;15464;50.988;10.318;2023-05-11T06:06:13;98698.34;;;12.53;100.00
28181;BME280;15464;50.988;10.318;2023-05-11T06:08:39;98706.72;;;12.59;100.00
28181;BME280;15464;50.988;10.318;2023-05-11T06:11:06;98699.97;;;12.64;100.00
28181;BME280;15464;50.988;10.318;2023-05-11T06:13:32;98694.03;;;12.70;100.00
28181;BME280;15464;50.988;10.318;2023-05-11T06:15:59;98692.34;;;12.69;100.00
28181;BME280;15464;50.988;10.318;2023-05-11T06:18:26;98699.91;;;12.74;100.00
28181;BME280;15464;50.988;10.318;2023-05-11T06:20:52;98697.50;;;12.80;100.00
28181;BME280;15464;50.988;10.318;2023-05-11T06:23:19;98689.88;;;12.85;100.00
28181;BME280;15464;50.988;10.318;2023-05-11T06:25:46;98690.41;;;12.89;100.00
28181;BME280;15464;50.988;10.318;2023-05-11T06:28:12;98700.91;;;12.90;100.00
28181;BME280;15464;50.988;10.318;2023-05-11T06:30:39;98694.41;;;12.93;100.00
28181;BME280;15464;50.988;10.318;2023-05-11T06:33:06;98691.94;;;12.91;100.00
28181;BME280;15464;50.988;10.318;2023-05-11T06:35:35;98699.22;;;12.89;100.00
28181;BME280;15464;50.988;10.318;2023-05-11T06:38:02;98705.41;;;12.90;100.00
28181;BME280;15464;50.988;10.318;2023-05-11T06:40:29;98703.94;;;12.96;100.00
28181;BME280;15464;50.988;10.318;2023-05-11T06:42:55;98701.00;;;12.99;100.00
28181;BME280;15464;50.988;10.318;2023-05-11T06:45:22;98703.94;;;12.96;100.00
28181;BME280;15464;50.988;10.318;2023-05-11T06:47:49;98695.81;;;12.97;100.00
28181;BME280;15464;50.988;10.318;2023-05-11T06:50:15;98699.84;;;12.83;100.00
28181;BME280;15464;50.988;10.318;2023-05-11T06:52:45;98700.59;;;12.93;100.00
28181;BME280;15464;50.988;10.318;2023-05-11T06:55:12;98698.34;;;12.99;100.00
28181;BME280;15464;50.988;10.318;2023-05-11T06:57:41;98698.34;;;12.99;100.00
28181;BME280;15464;50.988;10.318;2023-05-11T07:00:08;98701.66;;;13.01;100.00
28181;BME280;15464;50.988;10.318;2023-05-11T07:02:35;98702.72;;;13.08;100.00
28181;BME280;15464;50.988;10.318;2023-05-11T07:05:02;98705.78;;;13.13;100.00
28181;BME280;15464;50.988;10.318;2023-05-11T07:07:28;98702.59;;;13.09;100.00
28181;BME280;15464;50.988;10.318;2023-05-11T07:09:55;98697.88;;;13.21;100.00
28181;BME280;15464;50.988;10.318;2023-05-11T07:12:22;98700.63;;;13.29;100.00
28181;BME280;15464;50.988;10.318;2023-05-11T07:14:48;98698.34;;;13.34;100.00
28181;BME280;15464;50.988;10.318;2023-05-11T07:17:15;98700.53;;;13.39;100.00
28181;BME280;15464;50.988;10.318;2023-05-11T07:19:42;98703.50;;;13.36;100.00
28181;BME280;15464;50.988;10.318;2023-05-11T07:22:09;98700.66;;;13.37;100.00
28181;BME280;15464;50.988;10.318;2023-05-11T07:24:38;98707.75;;;13.46;100.00
28181;BME280;15464;50.988;10.318;2023-05-11T07:27:04;98702.72;;;13.43;100.00
28181;BME280;15464;50.988;10.318;2023-05-11T07:29:31;98704.72;;;13.41;100.00
28181;BME280;15464;50.988;10.318;2023-05-11T07:31:58;98701.59;;;13.46;100.00
28181;BME280;15464;50.988;10.318;2023-05-11T07:34:24;98697.81;;;13.56;100.00
28181;BME280;15464;50.988;10.318;2023-05-11T07:36:51;98699.03;;;13.62;100.00
28181;BME280;15464;50.988;10.318;2023-05-11T07:39:18;98701.88;;;13.60;100.00
28181;BME280;15464;50.988;10.318;2023-05-11T07:41:45;98698.56;;;13.66;100.00
28181;BME280;15464;50.988;10.318;2023-05-11T07:44:11;98700.56;;;13.64;100.00
28181;BME280;15464;50.988;10.318;2023-05-11T07:46:38;98693.28;;;13.49;100.00
28181;BME280;15464;50.988;10.318;2023-05-11T07:49:05;98696.00;;;13.57;100.00
28181;BME280;15464;50.988;10.318;2023-05-11T07:51:46;98691.88;;;13.62;100.00
28181;BME280;15464;50.988;10.318;2023-05-11T07:54:12;98696.75;;;13.67;100.00
28181;BME280;15464;50.988;10.318;2023-05-11T07:56:39;98697.09;;;13.46;100.00
28181;BME280;15464;50.988;10.318;2023-05-11T07:59:06;98693.44;;;13.47;100.00
28181;BME280;15464;50.988;10.318;2023-05-11T08:01:32;98696.91;;;13.65;100.00
28181;BME280;15464;50.988;10.318;2023-05-11T08:03:59;98697.13;;;13.72;100.00
28181;BME280;15464;50.988;10.318;2023-05-11T08:06:26;98698.47;;;13.76;100.00
28181;BME280;15464;50.988;10.318;2023-05-11T08:08:53;98685.91;;;13.94;100.00
28181;BME280;15464;50.988;10.318;2023-05-11T08:11:20;98694.63;;;14.04;100.00
28181;BME280;15464;50.988;10.318;2023-05-11T08:13:47;98696.03;;;14.17;100.00
28181;BME280;15464;50.988;10.318;2023-05-11T08:16:13;98693.88;;;14.20;100.00
28181;BME280;15464;50.988;10.318;2023-05-11T08:18:40;98697.63;;;14.35;100.00
28181;BME280;15464;50.988;10.318;2023-05-11T08:21:07;98695.81;;;14.44;100.00
28181;BME280;15464;50.988;10.318;2023-05-11T08:23:34;98697.38;;;14.55;100.00
28181;BME280;15464;50.988;10.318;2023-05-11T08:26:00;98690.38;;;14.62;100.00
28181;BME280;15464;50.988;10.318;2023-05-11T08:28:27;98690.72;;;14.59;99.96
28181;BME280;15464;50.988;10.318;2023-05-11T08:30:55;98696.75;;;14.61;100.00
28181;BME280;15464;50.988;10.318;2023-05-11T08:33:22;98694.50;;;14.40;100.00
28181;BME280;15464;50.988;10.318;2023-05-11T08:36:03;98690.72;;;14.59;100.00
28181;BME280;15464;50.988;10.318;2023-05-11T08:38:30;98688.59;;;14.78;99.56
28181;BME280;15464;50.988;10.318;2023-05-11T08:40:56;98691.13;;;14.96;98.89
28181;BME280;15464;50.988;10.318;2023-05-11T08:43:25;98686.47;;;14.98;97.24
28181;BME280;15464;50.988;10.318;2023-05-11T08:45:55;98693.16;;;15.10;95.84
28181;BME280;15464;50.988;10.318;2023-05-11T08:48:23;98683.47;;;15.17;96.38
28181;BME280;15464;50.988;10.318;2023-05-11T08:50:49;98691.84;;;15.22;95.29
28181;BME280;15464;50.988;10.318;2023-05-11T08:53:17;98685.13;;;15.26;95.43
28181;BME280;15464;50.988;10.318;2023-05-11T08:55:45;98690.63;;;15.25;94.92
28181;BME280;15464;50.988;10.318;2023-05-11T08:58:13;98686.31;;;15.24;93.33
28181;BME280;15464;50.988;10.318;2023-05-11T09:00:45;98692.00;;;15.29;93.83
28181;BME280;15464;50.988;10.318;2023-05-11T09:03:17;98693.16;;;15.34;93.42
28181;BME280;15464;50.988;10.318;2023-05-11T09:05:48;98696.16;;;15.31;93.34
28181;BME280;15464;50.988;10.318;2023-05-11T09:08:17;98683.13;;;15.37;92.38
28181;BME280;15464;50.988;10.318;2023-05-11T09:10:44;98692.50;;;15.41;93.47
28181;BME280;15464;50.988;10.318;2023-05-11T09:13:11;98686.81;;;15.52;92.85
28181;BME280;15464;50.988;10.318;2023-05-11T09:15:38;98687.47;;;15.38;93.88
28181;BME280;15464;50.988;10.318;2023-05-11T09:18:05;98680.81;;;15.17;95.60
28181;BME280;15464;50.988;10.318;2023-05-11T09:20:33;98681.97;;;15.31;93.54
28181;BME280;15464;50.988;10.318;2023-05-11T09:23:00;98683.47;;;15.33;93.45
28181;BME280;15464;50.988;10.318;2023-05-11T09:25:31;98682.81;;;15.40;92.45
28181;BME280;15464;50.988;10.318;2023-05-11T09:28:00;98681.81;;;15.41;92.36
28181;BME280;15464;50.988;10.318;2023-05-11T09:30:27;98684.63;;;15.39;92.29
28181;BME280;15464;50.988;10.318;2023-05-11T09:32:58;98682.31;;;15.28;91.29
28181;BME280;15464;50.988;10.318;2023-05-11T09:35:26;98678.13;;;15.25;91.92
28181;BME280;15464;50.988;10.318;2023-05-11T09:38:10;98682.78;;;15.07;90.28
28181;BME280;15464;50.988;10.318;2023-05-11T09:40:38;98680.13;;;15.07;90.95
28181;BME280;15464;50.988;10.318;2023-05-11T09:45:47;98687.78;;;14.94;90.98
28181;BME280;15464;50.988;10.318;2023-05-11T09:50:42;98680.28;;;14.98;91.44
28181;BME280;15464;50.988;10.318;2023-05-11T09:53:09;98678.47;;;14.98;92.01
28181;BME280;15464;50.988;10.318;2023-05-11T09:55:36;98682.94;;;14.89;93.87
28181;BME280;15464;50.988;10.318;2023-05-11T09:58:03;98685.09;;;14.78;93.96
28181;BME280;15464;50.988;10.318;2023-05-11T10:00:30;98691.88;;;14.56;95.21
28181;BME280;15464;50.988;10.318;2023-05-11T10:02:58;98685.00;;;14.45;95.93
28181;BME280;15464;50.988;10.318;2023-05-11T10:05:28;98690.88;;;14.49;96.15
28181;BME280;15464;50.988;10.318;2023-05-11T10:07:59;98690.22;;;14.55;95.64
28181;BME280;15464;50.988;10.318;2023-05-11T10:10:28;98680.88;;;14.59;95.81
28181;BME280;15464;50.988;10.318;2023-05-11T10:12:57;98680.72;;;14.61;97.31
28181;BME280;15464;50.988;10.318;2023-05-11T10:15:26;98678.22;;;14.67;95.92
28181;BME280;15464;50.988;10.318;2023-05-11T10:17:58;98680.41;;;14.72;96.66
28181;BME280;15464;50.988;10.318;2023-05-11T10:20:28;98677.41;;;14.83;96.74
28181;BME280;15464;50.988;10.318;2023-05-11T10:22:54;98671.75;;;14.86;97.33
28181;BME280;15464;50.988;10.318;2023-05-11T10:25:23;98674.44;;;14.86;97.28
28181;BME280;15464;50.988;10.318;2023-05-11T10:27:50;98664.59;;;14.86;98.06
28181;BME280;15464;50.988;10.318;2023-05-11T10:30:17;98668.78;;;14.97;97.81
28181;BME280;15464;50.988;10.318;2023-05-11T10:32:45;98662.59;;;15.13;97.93
28181;BME280;15464;50.988;10.318;2023-05-11T10:35:15;98661.28;;;15.17;98.37
28181;BME280;15464;50.988;10.318;2023-05-11T10:37:41;98657.75;;;15.16;98.08
28181;BME280;15464;50.988;10.318;2023-05-11T10:40:09;98656.44;;;15.28;98.15
28181;BME280;15464;50.988;10.318;2023-05-11T10:42:50;98656.06;;;15.40;96.49
28181;BME280;15464;50.988;10.318;2023-05-11T10:58:40;98656.91;;;15.48;93.07
28181;BME280;15464;50.988;10.318;2023-05-11T11:01:27;98657.59;;;15.58;93.35
28181;BME280;15464;50.988;10.318;2023-05-11T11:06:24;98649.06;;;15.63;92.81
28181;BME280;15464;50.988;10.318;2023-05-11T11:14:15;98651.34;;;15.90;92.40
28181;BME280;15464;50.988;10.318;2023-05-11T11:19:58;98654.72;;;15.76;92.91
28181;BME280;15464;50.988;10.318;2023-05-11T11:25:05;98645.34;;;15.80;94.10
28181;BME280;15464;50.988;10.318;2023-05-11T11:38:15;98650.75;;;15.23;94.94
28181;BME280;15464;50.988;10.318;2023-05-11T11:40:47;98654.91;;;15.34;93.69
28181;BME280;15464;50.988;10.318;2023-05-11T11:43:25;98648.06;;;15.40;93.69
28181;BME280;15464;50.988;10.318;2023-05-11T11:46:00;98661.75;;;15.37;93.20
28181;BME280;15464;50.988;10.318;2023-05-11T11:48:38;98656.06;;;15.31;93.67
28181;BME280;15464;50.988;10.318;2023-05-11T11:51:07;98657.91;;;15.15;94.91
28181;BME280;15464;50.988;10.318;2023-05-11T11:56:04;98662.03;;;14.61;98.26
28181;BME280;15464;50.988;10.318;2023-05-11T12:01:28;98659.38;;;14.77;100.00
28181;BME280;15464;50.988;10.318;2023-05-11T12:06:43;98653.22;;;14.76;100.00
28181;BME280;15464;50.988;10.318;2023-05-11T12:09:17;98659.72;;;14.74;100.00
28181;BME280;15464;50.988;10.318;2023-05-11T12:11:45;98658.88;;;14.81;100.00
28181;BME280;15464;50.988;10.318;2023-05-11T12:14:13;98658.22;;;14.79;100.00
28181;BME280;15464;50.988;10.318;2023-05-11T12:16:40;98658.38;;;14.78;100.00
28181;BME280;15464;50.988;10.318;2023-05-11T12:19:07;98662.22;;;14.75;100.00
28181;BME280;15464;50.988;10.318;2023-05-11T12:21:34;98657.38;;;14.71;100.00
28181;BME280;15464;50.988;10.318;2023-05-11T12:24:03;98656.88;;;14.67;100.00
28181;BME280;15464;50.988;10.318;2023-05-11T12:26:31;98662.03;;;14.69;100.00
28181;BME280;15464;50.988;10.318;2023-05-11T12:29:09;98655.38;;;14.73;100.00
28181;BME280;15464;50.988;10.318;2023-05-11T12:31:37;98652.00;;;14.63;100.00
28181;BME280;15464;50.988;10.318;2023-05-11T12:34:05;98656.34;;;14.64;100.00
28181;BME280;15464;50.988;10.318;2023-05-11T12:36:33;98650.34;;;14.62;100.00
28181;BME280;15464;50.988;10.318;2023-05-11T12:38:59;98646.50;;;14.64;100.00
28181;BME280;15464;50.988;10.318;2023-05-11T12:41:26;98641.34;;;14.71;100.00
28181;BME280;15464;50.988;10.318;2023-05-11T12:43:53;98640.72;;;14.85;100.00
28181;BME280;15464;50.988;10.318;2023-05-11T12:46:22;98634.88;;;14.89;100.00
28181;BME280;15464;50.988;10.318;2023-05-11T12:48:50;98649.75;;;14.92;100.00
28181;BME280;15464;50.988;10.318;2023-05-11T12:54:08;98643.22;;;15.03;100.00
28181;BME280;15464;50.988;10.318;2023-05-11T12:56:46;98643.72;;;15.06;100.00
28181;BME280;15464;50.988;10.318;2023-05-11T13:02:18;98643.41;;;15.17;100.00
28181;BME280;15464;50.988;10.318;2023-05-11T13:04:46;98638.22;;;15.24;100.00
28181;BME280;15464;50.988;10.318;2023-05-11T13:07:24;98644.38;;;15.32;100.00
28181;BME280;15464;50.988;10.318;2023-05-11T13:09:55;98639.38;;;15.21;100.00
28181;BME280;15464;50.988;10.318;2023-05-11T13:12:24;98645.72;;;15.28;100.00
28181;BME280;15464;50.988;10.318;2023-05-11T13:15:10;98635.38;;;15.25;100.00
28181;BME280;15464;50.988;10.318;2023-05-11T13:17:40;98636.72;;;15.21;100.00
28181;BME280;15464;50.988;10.318;2023-05-11T13:22:41;98629.69;;;15.28;100.00
28181;BME280;15464;50.988;10.318;2023-05-11T13:25:08;98632.34;;;15.37;100.00
28181;BME280;15464;50.988;10.318;2023-05-11T13:27:36;98626.34;;;15.43;100.00
28181;BME280;15464;50.988;10.318;2023-05-11T13:30:04;98625.50;;;15.42;100.00
28181;BME280;15464;50.988;10.318;2023-05-11T13:32:31;98627.84;;;15.37;100.00
28181;BME280;15464;50.988;10.318;2023-05-11T13:35:02;98624.16;;;15.38;100.00
28181;BME280;15464;50.988;10.318;2023-05-11T13:37:29;98620.00;;;15.27;100.00
28181;BME280;15464;50.988;10.318;2023-05-11T13:39:56;98622.53;;;15.05;100.00
28181;BME280;15464;50.988;10.318;2023-05-11T13:42:23;98618.69;;;14.91;100.00
28181;BME280;15464;50.988;10.318;2023-05-11T13:44:49;98625.03;;;14.90;100.00
28181;BME280;15464;50.988;10.318;2023-05-11T13:47:16;98622.19;;;14.91;100.00
28181;BME280;15464;50.988;10.318;2023-05-11T13:49:43;98623.03;;;14.92;100.00
28181;BME280;15464;50.988;10.318;2023-05-11T13:52:10;98622.69;;;14.95;100.00
28181;BME280;15464;50.988;10.318;2023-05-11T13:54:36;98623.88;;;14.92;100.00